메인 페이지
METAR-TAF:

METAR-TAF

공항 :

인디라 간디 국제공항

뉴델리, 인도

위도: 28-34N, 경도: 077-07E, 고도: 220m

현재 날씨관측

예보는 42분 전, 08:00시(UTC)에 발표되었습니다.
서북서5kt, 순간 최대 풍속 15kt
온도 41°C
습도 27%
기압 999 hPa
시정: 4000m
고도 10000ft 상공 구름 조금
연무

METAR: VIDP 240800Z 30005G15KT 4000 HZ FEW100 41/18 Q0999 NOSIG

시각: 14:12 (08:42 UTC)

예보

예보는 3 시간 42분 전, 05:00시(UTC)에 발표되었습니다.
예보 대상 시간: 24일 06시부터 25일 12시까지 (UTC)
서북서10kt, 순간 최대 풍속 20kt
시정: 4000m
고도 4000ft 상공 구름 조금
고도 10000ft 상공 구름 보통
연무
전환 중
24일 16시부터 24일 17시까지 (UTC)
서북서8kt
시정: 3000m
연무
전환 중
25일 07시부터 25일 08시까지 (UTC)
북서10kt, 순간 최대 풍속 20kt
시정: 4000m
연무
일시적
25일 09시부터 25일 12시까지 (UTC)
고도 4000ft 상공 구름 조금, 적란운.

TAF: VIDP 240500Z 2406/2512 30010G20KT 4000 HZ FEW040 SCT100 BECMG 2416/2417 29008KT 3000 HZ BECMG 2507/2508 32010G20KT 4000 HZ TEMPO 2509/2512 FEW040CB

4,000개 이상의 공항 관측 자료 및 예보 (METAR 및 TAF 보고).

지도상에서 검색 가능한 기상관측소가 노란 점과 빨간 점으로 표시되어 있습니다.

기상관측소 명을 보려면 표시 위로 마우스를 이동하세요.

날씨 관측과 예보를 보려면 클릭하세요.

지도 변경 : 확대하려면 엑스 표시가 있는 녹색 버튼, 축소하려면 빼기 표시가 있는 녹색 버튼, 다음 페이지의 지도를 보려면 녹색 화살표를 클릭하세요.


METAR-TAF: